Mobile Regional Airport Mobile US
ICAO: KMOB
IATA: MOB
Category: Large
Scheduled Services: Yes

Elevation: 219 ft
TransAlt. 18000 ft.

Airport Communications:
APP/DEP:118.5
ATIS:124.75
CLNC DEL:119.85
CTAF:118.3
GND:121.9
ARNG OPS:41.05
AIR:34.5
ANNISTON RDO:122.2
TWR:118.3
UNICOM:122.95

KMOB Zoom In..

Runways:

(A) RW 14 length 8502 ft width 150 ft
ILS 109.90 / hdg 145

(B) RW 18 length 4376 ft width 150 ft
---- / hdg 181

(C) RW 32 length 8502 ft width 150 ft
ILS 111.50 / hdg 325

(D) RW 36 length 4376 ft width 150 ft
---- / hdg 1

Location; KMOB
Day. 22 / Time. 03.56 Zulu
* Altimeter: 30.11
* Temperature: 14° c. 57.2°f.
* Wind from: 120° Speed 10 kn.
Dewpoint: 11° c.
Visibility: 10 Statute Miles.
Clouds: Clear (automated report).

KMOB 220356Z 12010KT 10SM CLR 14/11 A3011 RMK AO2 SLP194 T01390111 $


Wind From 120°
Speed 10 kn.

jpsM music video
CHECK IT OUT

jpsM - It Moves..

 
jpsmedia.com for Web Design  worldairports.se 2018   terms of use